メインページ
METAR-TAF:

METAR-TAF

空港 :

カシディー国際空港

キリスィマスィ島, キリバス

緯度: 01-59N, 経度: 157-29W, 海抜: 3m

現時点の気象観測

当レポートは23分前の10:00(UTC)に作成
変向風 1kt
気温 26°C
湿度 89%
気圧 1008 hPa
視程10km以上
高度2000ftの雲はほとんどない
高度30000ftの雲は散在している

METAR: PLCH 161000Z VRB01KT 9999 FEW020 SCT300 26/24 Q1008

時間: 00:23 (10:23 UTC)

予報

当レポートは5時間18分前の05:05(UTC)に作成
予報は16日の 06時(UTC)から 17日の 06時(UTC)まで有効
南東の風 6kt
視程10km以上
高度2000ftの雲は散在している
高度4000ftの千切れ雲あり
弱いにわか雨
確率 40% :
16日の 06時(UTC)から 16日の 24時(UTC)まで一時的に
視程: 5000m
高度1800ftの雲はほとんどない, 積乱雲.
激しい雷雨, 雨

TAF: PLCH 160505Z 1606/1706 13006KT 9999 -SHRA SCT020 BKN040 PROB40 TEMPO 1606/1624 5000 TSRA FEW018CB

4,000以上の空港の気象観測と天気予報(METAR報とTAF報)

利用可能な観測所は地図上に黄色い丸と赤い丸で示す。

丸の上にカーソルを重ねると観測所名を参照できる。

次にクリックすると気象観測と天気予報を参照できる。

マップの切り替え:黒色「×」印の緑ボタンをクリックして拡大、「-」印の緑ボタンをクリックして縮小、緑色の三角印をクリックして隣りの地図に切り替え


METAR-TAF: